createdAt,value
2023-04-10T00:02:15.663Z,5.85
2023-04-10T00:04:43.847Z,5.81
2023-04-10T00:07:12.705Z,5.75
2023-04-10T00:09:40.572Z,5.66
2023-04-10T00:12:08.492Z,5.63
2023-04-10T00:14:36.351Z,5.55
2023-04-10T00:17:04.238Z,5.52
2023-04-10T00:19:32.150Z,5.48
2023-04-10T00:22:00.097Z,5.47
2023-04-10T00:24:28.180Z,5.43
2023-04-10T00:26:57.585Z,5.36
2023-04-10T00:29:25.560Z,5.32
2023-04-10T00:31:53.542Z,5.33
2023-04-10T00:34:21.406Z,5.33
2023-04-10T00:36:49.359Z,5.27
2023-04-10T00:39:17.843Z,5.25
2023-04-10T00:41:45.724Z,5.21
2023-04-10T00:44:13.648Z,5.16
2023-04-10T00:46:42.035Z,5.14
2023-04-10T00:49:10.915Z,5.09
2023-04-10T00:51:38.947Z,5.01
2023-04-10T00:54:07.290Z,4.98
2023-04-10T00:56:35.290Z,4.90
2023-04-10T00:59:05.750Z,4.82
2023-04-10T01:01:35.038Z,4.67
2023-04-10T01:04:03.468Z,4.58
2023-04-10T01:06:34.486Z,4.59
2023-04-10T01:09:10.019Z,4.57
2023-04-10T01:11:37.875Z,4.61
2023-04-10T01:14:11.795Z,4.67
2023-04-10T01:16:55.684Z,4.68
2023-04-10T01:19:50.872Z,4.70
2023-04-10T01:22:26.569Z,4.78
2023-04-10T01:25:38.362Z,4.79
2023-04-10T01:28:11.266Z,4.79
2023-04-10T01:30:40.554Z,4.76
2023-04-10T01:33:13.469Z,4.70
2023-04-10T01:35:44.265Z,4.62
2023-04-10T01:38:13.018Z,4.62
2023-04-10T01:40:42.321Z,4.63
2023-04-10T01:43:12.686Z,4.65
2023-04-10T01:45:53.113Z,4.63
2023-04-10T01:48:21.836Z,4.61
2023-04-10T01:50:51.827Z,4.57
2023-04-10T01:53:20.746Z,4.51
2023-04-10T01:55:50.060Z,4.46
2023-04-10T01:58:18.616Z,4.38
2023-04-10T02:00:46.571Z,4.34
2023-04-10T02:03:15.687Z,4.32
2023-04-10T02:06:16.209Z,4.30
2023-04-10T02:08:54.860Z,4.27
2023-04-10T02:11:48.868Z,4.19
2023-04-10T02:14:20.582Z,4.14
2023-04-10T02:16:53.028Z,4.11
2023-04-10T02:19:23.829Z,4.10
2023-04-10T02:21:53.724Z,4.06
2023-04-10T02:24:22.558Z,4.01
2023-04-10T02:26:52.324Z,3.98
2023-04-10T02:29:20.452Z,4.00
2023-04-10T02:31:49.039Z,4.02
2023-04-10T02:34:16.865Z,4.04
2023-04-10T02:36:44.779Z,3.99
2023-04-10T02:39:13.267Z,3.94
2023-04-10T02:41:48.501Z,3.91
2023-04-10T02:44:16.537Z,3.87
2023-04-10T02:46:44.648Z,3.77
2023-04-10T02:49:13.007Z,3.69
2023-04-10T02:51:41.043Z,3.62
2023-04-10T02:54:08.909Z,3.63
2023-04-10T02:56:37.641Z,3.63
2023-04-10T02:59:06.099Z,3.61
2023-04-10T03:01:34.862Z,3.60
2023-04-10T03:04:04.172Z,3.55
2023-04-10T03:06:36.395Z,3.51
2023-04-10T03:09:04.415Z,3.47
2023-04-10T03:11:34.420Z,3.46
2023-04-10T03:14:02.293Z,3.38
2023-04-10T03:16:30.578Z,3.31
2023-04-10T03:18:58.617Z,3.26
2023-04-10T03:21:27.523Z,3.21
2023-04-10T03:23:56.394Z,3.17
2023-04-10T03:26:24.354Z,3.13
2023-04-10T03:28:52.761Z,3.13
2023-04-10T03:31:20.846Z,3.14
2023-04-10T03:33:49.194Z,3.13
2023-04-10T03:36:17.395Z,3.11
2023-04-10T03:38:45.337Z,3.11
2023-04-10T03:41:13.345Z,3.17
2023-04-10T03:43:41.631Z,3.27
2023-04-10T03:46:09.733Z,3.35
2023-04-10T03:48:42.019Z,3.46
2023-04-10T03:51:11.061Z,3.47
2023-04-10T03:53:39.166Z,3.55
2023-04-10T03:56:10.072Z,3.64
2023-04-10T03:58:38.184Z,3.67
2023-04-10T04:01:06.452Z,3.64
2023-04-10T04:03:38.399Z,3.60
2023-04-10T04:06:27.318Z,3.57
2023-04-10T04:09:30.617Z,3.48
2023-04-10T04:12:18.807Z,3.51
2023-04-10T04:15:03.790Z,3.55
2023-04-10T04:17:57.442Z,3.61
2023-04-10T04:20:36.862Z,3.58
2023-04-10T04:23:24.944Z,3.66
2023-04-10T04:26:07.011Z,3.76
2023-04-10T04:28:49.811Z,3.83
2023-04-10T04:31:39.907Z,3.89
2023-04-10T04:34:30.668Z,3.98
2023-04-10T04:37:33.752Z,4.05
2023-04-10T04:40:20.365Z,4.08
2023-04-10T04:43:06.888Z,4.02
2023-04-10T04:45:57.376Z,4.03
2023-04-10T04:48:53.388Z,4.05
2023-04-10T04:51:44.244Z,4.06
2023-04-10T04:54:32.447Z,4.13
2023-04-10T04:57:30.101Z,4.25
2023-04-10T05:00:08.487Z,4.37
2023-04-10T05:02:57.055Z,4.47
2023-04-10T05:05:31.573Z,4.59
2023-04-10T05:08:19.744Z,4.69
2023-04-10T05:11:02.055Z,4.62
2023-04-10T05:13:56.328Z,4.59
2023-04-10T05:16:58.175Z,4.70
2023-04-10T05:19:43.555Z,4.76
2023-04-10T05:22:23.235Z,4.89
2023-04-10T05:25:15.495Z,4.95
2023-04-10T05:28:01.484Z,5.06
2023-04-10T05:30:49.717Z,5.14
2023-04-10T05:33:40.824Z,5.29
2023-04-10T05:36:40.963Z,5.35
2023-04-10T05:39:22.411Z,5.51
2023-04-10T05:42:09.059Z,5.64
2023-04-10T05:45:09.416Z,5.83
2023-04-10T05:47:55.318Z,5.99
2023-04-10T05:50:55.479Z,6.22
2023-04-10T05:53:37.781Z,6.42
2023-04-10T05:56:27.319Z,6.63
2023-04-10T05:59:24.655Z,6.75
2023-04-10T06:02:13.691Z,6.89
2023-04-10T06:04:41.766Z,6.98
2023-04-10T06:07:09.932Z,7.03
2023-04-10T06:09:37.871Z,7.13
2023-04-10T06:12:07.026Z,7.11
2023-04-10T06:14:38.793Z,7.12
2023-04-10T06:17:07.212Z,7.24
2023-04-10T06:19:35.350Z,7.36
2023-04-10T06:22:03.245Z,7.49
2023-04-10T06:24:31.248Z,7.52
2023-04-10T06:26:59.810Z,7.64
2023-04-10T06:29:27.648Z,7.78
2023-04-10T06:31:55.807Z,7.85
2023-04-10T06:34:24.531Z,7.87
2023-04-10T06:37:00.560Z,8.02
2023-04-10T06:39:28.676Z,8.06
2023-04-10T06:41:59.166Z,8.13
2023-04-10T06:44:38.501Z,8.34
2023-04-10T06:47:06.974Z,8.52
2023-04-10T06:49:35.008Z,8.56
2023-04-10T06:52:02.945Z,8.64
2023-04-10T06:54:30.788Z,8.71
2023-04-10T06:56:59.114Z,8.91
2023-04-10T06:59:27.025Z,9.12
2023-04-10T07:01:55.137Z,9.33
2023-04-10T07:04:22.941Z,9.51
2023-04-10T07:06:51.042Z,9.62
2023-04-10T07:09:18.967Z,9.69
2023-04-10T07:11:46.945Z,9.76
2023-04-10T07:14:14.799Z,9.77
2023-04-10T07:16:42.811Z,9.72
2023-04-10T07:19:10.844Z,9.80
2023-04-10T07:21:38.678Z,9.92
2023-04-10T07:24:06.550Z,10.00
2023-04-10T07:26:34.511Z,10.05
2023-04-10T07:29:02.451Z,10.05
2023-04-10T07:31:30.733Z,10.12
2023-04-10T07:33:58.703Z,10.25
2023-04-10T07:36:27.259Z,10.19
2023-04-10T07:38:56.658Z,10.15
2023-04-10T07:41:24.781Z,10.11
2023-04-10T07:43:52.696Z,10.16
2023-04-10T07:46:20.684Z,10.23
2023-04-10T07:48:49.759Z,10.21
2023-04-10T07:51:17.658Z,10.27
2023-04-10T07:53:45.523Z,10.33
2023-04-10T07:56:20.794Z,10.34
2023-04-10T07:58:49.685Z,10.37
2023-04-10T08:01:17.620Z,10.51
2023-04-10T08:03:47.099Z,10.67
2023-04-10T08:06:15.580Z,10.79
2023-04-10T08:08:43.613Z,11.05
2023-04-10T08:11:31.072Z,11.17
2023-04-10T08:14:04.000Z,11.22
2023-04-10T08:16:34.051Z,11.28
2023-04-10T08:19:03.022Z,11.24
2023-04-10T08:21:34.156Z,11.24
2023-04-10T08:24:03.528Z,11.31
2023-04-10T08:26:31.861Z,11.20
2023-04-10T08:29:00.936Z,11.24
2023-04-10T08:31:29.556Z,11.28
2023-04-10T08:33:58.725Z,11.34
2023-04-10T08:36:27.886Z,11.43
2023-04-10T08:38:55.986Z,11.50
2023-04-10T08:41:23.924Z,11.64
2023-04-10T08:43:51.803Z,11.69
2023-04-10T08:46:20.405Z,11.58
2023-04-10T08:48:56.923Z,11.40
2023-04-10T08:51:29.111Z,11.35
2023-04-10T08:54:05.324Z,11.44
2023-04-10T08:56:35.252Z,11.59
2023-04-10T08:59:03.972Z,11.75
2023-04-10T09:01:31.987Z,11.89
2023-04-10T09:04:00.447Z,12.02
2023-04-10T09:06:28.887Z,11.87
2023-04-10T09:08:56.856Z,12.04
2023-04-10T09:11:24.773Z,12.23
2023-04-10T09:13:52.593Z,12.34
2023-04-10T09:16:29.247Z,12.42
2023-04-10T09:18:57.606Z,12.58
2023-04-10T09:21:27.179Z,12.57
2023-04-10T09:24:01.802Z,12.63
2023-04-10T09:26:33.942Z,12.80
2023-04-10T09:29:04.319Z,13.03
2023-04-10T09:31:34.921Z,13.19
2023-04-10T09:34:16.971Z,13.36
2023-04-10T09:36:53.058Z,13.55
2023-04-10T09:39:21.298Z,13.65
2023-04-10T09:41:51.561Z,13.76
2023-04-10T09:44:30.349Z,13.91
2023-04-10T09:47:08.096Z,14.03
2023-04-10T09:49:46.705Z,14.22
2023-04-10T09:52:31.503Z,14.36
2023-04-10T09:55:09.981Z,14.44
2023-04-10T09:57:37.808Z,14.33
2023-04-10T10:00:09.605Z,14.31
2023-04-10T10:02:41.372Z,14.31
2023-04-10T10:05:11.268Z,14.35
2023-04-10T10:07:39.945Z,14.34
2023-04-10T10:10:11.060Z,14.24
2023-04-10T10:13:01.864Z,14.19
2023-04-10T10:15:45.233Z,13.98
2023-04-10T10:18:37.732Z,13.91
2023-04-10T10:21:08.402Z,13.81
2023-04-10T10:23:37.778Z,13.73
2023-04-10T10:26:06.842Z,13.72
2023-04-10T10:28:36.699Z,13.61
2023-04-10T10:31:05.282Z,13.64
2023-04-10T10:33:37.138Z,13.70
2023-04-10T10:36:05.743Z,13.76
2023-04-10T10:38:34.704Z,13.75
2023-04-10T10:41:38.594Z,13.70
2023-04-10T10:44:36.580Z,13.68
2023-04-10T10:47:32.522Z,13.69
2023-04-10T10:50:02.421Z,13.78
2023-04-10T10:52:53.047Z,13.88
2023-04-10T10:55:31.802Z,14.02
2023-04-10T10:58:01.504Z,14.17
2023-04-10T11:01:07.860Z,14.20
2023-04-10T11:03:38.301Z,14.32
2023-04-10T11:06:12.847Z,14.38
2023-04-10T11:08:48.767Z,14.46
2023-04-10T11:11:17.657Z,14.57
2023-04-10T11:14:05.921Z,14.72
2023-04-10T11:16:34.947Z,14.80
2023-04-10T11:19:14.032Z,14.76
2023-04-10T11:21:59.550Z,14.78
2023-04-10T11:24:27.865Z,14.92
2023-04-10T11:26:56.344Z,15.06
2023-04-10T11:29:27.142Z,15.12
2023-04-10T11:32:00.210Z,15.22
2023-04-10T11:34:30.833Z,15.29
2023-04-10T11:37:02.991Z,15.41
2023-04-10T11:39:31.591Z,15.54
2023-04-10T11:41:59.571Z,15.60
2023-04-10T11:44:41.165Z,15.66
2023-04-10T11:47:13.032Z,15.76
2023-04-10T11:49:41.927Z,15.78
2023-04-10T11:52:09.942Z,15.86
2023-04-10T11:54:37.804Z,15.94
2023-04-10T11:57:09.603Z,15.98
2023-04-10T11:59:37.913Z,16.03
2023-04-10T12:02:16.821Z,16.07
2023-04-10T12:04:45.239Z,16.09
2023-04-10T12:07:13.332Z,15.99
2023-04-10T12:09:41.626Z,15.98
2023-04-10T12:12:09.437Z,16.01
2023-04-10T12:14:39.764Z,16.04
2023-04-10T12:17:11.134Z,16.21
2023-04-10T12:19:40.352Z,16.37
2023-04-10T12:22:12.100Z,16.50
2023-04-10T12:24:47.573Z,16.53
2023-04-10T12:27:23.817Z,16.55
2023-04-10T12:29:54.439Z,16.58
2023-04-10T12:32:23.623Z,16.64
2023-04-10T12:34:53.911Z,16.65
2023-04-10T12:37:21.810Z,16.75
2023-04-10T12:39:49.966Z,16.90
2023-04-10T12:42:23.250Z,17.01
2023-04-10T12:44:55.100Z,17.10
2023-04-10T12:47:24.720Z,17.09
2023-04-10T12:50:13.528Z,17.02
2023-04-10T12:53:01.182Z,16.91
2023-04-10T12:55:29.176Z,16.89
2023-04-10T12:57:57.420Z,16.85
2023-04-10T13:00:26.326Z,16.76
2023-04-10T13:02:54.702Z,16.75
2023-04-10T13:05:23.691Z,16.81
2023-04-10T13:07:52.937Z,16.86
2023-04-10T13:10:21.993Z,16.92
2023-04-10T13:12:49.860Z,16.96
2023-04-10T13:15:17.762Z,16.98
2023-04-10T13:17:45.640Z,16.98
2023-04-10T13:20:13.673Z,16.98
2023-04-10T13:22:41.557Z,17.02
2023-04-10T13:25:09.646Z,17.04
2023-04-10T13:27:37.632Z,17.03
2023-04-10T13:30:06.616Z,16.98
2023-04-10T13:32:34.495Z,16.99
2023-04-10T13:35:02.527Z,17.05
2023-04-10T13:37:30.778Z,17.10
2023-04-10T13:39:58.797Z,17.10
2023-04-10T13:42:26.732Z,17.15
2023-04-10T13:44:54.718Z,17.19
2023-04-10T13:47:22.525Z,17.18
2023-04-10T13:49:50.440Z,17.18
2023-04-10T13:52:18.342Z,17.22
2023-04-10T13:54:46.301Z,17.24
2023-04-10T13:57:14.179Z,17.27
2023-04-10T13:59:42.138Z,17.26
2023-04-10T14:02:10.087Z,17.30
2023-04-10T14:04:38.009Z,17.28
2023-04-10T14:07:06.023Z,17.29
2023-04-10T14:09:33.931Z,17.36
2023-04-10T14:12:02.176Z,17.28
2023-04-10T14:14:30.204Z,17.20
2023-04-10T14:16:58.420Z,17.08
2023-04-10T14:19:26.564Z,17.15
2023-04-10T14:21:54.443Z,17.16
2023-04-10T14:24:22.254Z,17.11
2023-04-10T14:26:52.260Z,17.00
2023-04-10T14:29:25.420Z,16.86
2023-04-10T14:32:01.353Z,16.82
2023-04-10T14:34:29.249Z,16.89
2023-04-10T14:36:57.107Z,16.95
2023-04-10T14:39:25.422Z,16.99
2023-04-10T14:41:53.428Z,16.99
2023-04-10T14:44:21.300Z,17.00
2023-04-10T14:46:49.233Z,17.00
2023-04-10T14:49:17.116Z,16.96
2023-04-10T14:51:46.284Z,16.89
2023-04-10T14:54:14.255Z,16.85
2023-04-10T14:56:42.537Z,16.93
2023-04-10T14:59:11.700Z,16.95
2023-04-10T15:01:39.743Z,16.96
2023-04-10T15:04:07.895Z,16.96
2023-04-10T15:06:36.330Z,16.97
2023-04-10T15:09:04.223Z,16.98
2023-04-10T15:11:32.671Z,16.98
2023-04-10T15:14:02.377Z,16.91
2023-04-10T15:16:30.675Z,16.92
2023-04-10T15:18:58.711Z,17.04
2023-04-10T15:21:27.662Z,17.59
2023-04-10T15:23:56.093Z,18.25
2023-04-10T15:26:24.332Z,18.25
2023-04-10T15:28:52.676Z,18.39
2023-04-10T15:31:24.184Z,18.97
2023-04-10T15:33:52.538Z,19.83
2023-04-10T15:36:20.538Z,19.85
2023-04-10T15:38:50.205Z,19.31
2023-04-10T15:41:18.493Z,18.83
2023-04-10T15:43:46.443Z,18.53
2023-04-10T15:46:15.974Z,18.42
2023-04-10T15:48:45.947Z,18.29
2023-04-10T15:51:14.041Z,18.13
2023-04-10T15:53:42.166Z,17.99
2023-04-10T15:56:10.209Z,17.81
2023-04-10T15:58:38.283Z,17.84
2023-04-10T16:01:07.085Z,17.83
2023-04-10T16:03:35.099Z,17.88
2023-04-10T16:06:03.796Z,19.27
2023-04-10T16:08:31.760Z,21.37
2023-04-10T16:10:59.694Z,22.15
2023-04-10T16:13:27.899Z,22.29
2023-04-10T16:15:56.077Z,23.78
2023-04-10T16:18:24.598Z,25.20
2023-04-10T16:20:52.756Z,26.00
2023-04-10T16:23:20.901Z,26.86
2023-04-10T16:25:48.782Z,27.53
2023-04-10T16:28:17.042Z,27.89
2023-04-10T16:30:45.173Z,28.24
2023-04-10T16:33:13.420Z,28.42
2023-04-10T16:35:41.385Z,28.42
2023-04-10T16:38:09.336Z,28.76
2023-04-10T16:40:38.681Z,29.16
2023-04-10T16:43:06.595Z,29.53
2023-04-10T16:45:34.965Z,29.46
2023-04-10T16:48:03.280Z,29.16
2023-04-10T16:50:36.188Z,28.91
2023-04-10T16:53:04.288Z,28.64
2023-04-10T16:55:32.287Z,28.40
2023-04-10T16:58:00.209Z,27.85
2023-04-10T17:00:28.909Z,26.78
2023-04-10T17:02:59.152Z,26.06
2023-04-10T17:05:35.083Z,26.02
2023-04-10T17:08:05.163Z,25.79
2023-04-10T17:10:33.086Z,25.19
2023-04-10T17:13:01.222Z,24.75
2023-04-10T17:15:29.544Z,24.05
2023-04-10T17:17:59.390Z,23.11
2023-04-10T17:20:28.393Z,22.14
2023-04-10T17:22:56.239Z,21.24
2023-04-10T17:25:24.166Z,20.49
2023-04-10T17:27:52.057Z,19.83
2023-04-10T17:30:20.254Z,19.29
2023-04-10T17:32:49.490Z,18.73
2023-04-10T17:35:17.958Z,18.21
2023-04-10T17:37:45.918Z,17.63
2023-04-10T17:40:14.223Z,17.25
2023-04-10T17:42:42.456Z,16.83
2023-04-10T17:45:10.986Z,16.37
2023-04-10T17:47:40.270Z,15.96
2023-04-10T17:50:08.831Z,15.58
2023-04-10T17:52:37.060Z,15.24
2023-04-10T17:55:05.799Z,14.73
2023-04-10T17:57:33.796Z,14.35
2023-04-10T18:00:02.615Z,13.99
2023-04-10T18:02:33.138Z,13.60
2023-04-10T18:05:04.464Z,13.26
2023-04-10T18:07:32.474Z,12.89
2023-04-10T18:10:00.721Z,12.63
2023-04-10T18:12:29.350Z,12.37
2023-04-10T18:14:57.629Z,12.19
2023-04-10T18:17:26.187Z,11.96
2023-04-10T18:19:56.643Z,11.78
2023-04-10T18:22:24.775Z,11.66
2023-04-10T18:24:53.479Z,11.55
2023-04-10T18:27:21.667Z,11.43
2023-04-10T18:29:49.797Z,11.28
2023-04-10T18:32:18.063Z,11.14
2023-04-10T18:34:46.673Z,10.94
2023-04-10T18:37:14.842Z,10.74
2023-04-10T18:39:44.536Z,10.59
2023-04-10T18:42:12.657Z,10.40
2023-04-10T18:44:40.930Z,10.24
2023-04-10T18:47:11.390Z,10.11
2023-04-10T18:49:39.628Z,9.99
2023-04-10T18:52:07.690Z,9.95
2023-04-10T18:54:36.756Z,9.81
2023-04-10T18:57:05.692Z,9.70
2023-04-10T18:59:33.873Z,9.56
2023-04-10T19:02:02.406Z,9.40
2023-04-10T19:04:30.852Z,9.32
2023-04-10T19:06:59.383Z,9.26
2023-04-10T19:09:27.660Z,9.13
2023-04-10T19:11:56.371Z,9.07
2023-04-10T19:14:24.683Z,9.02
2023-04-10T19:16:53.017Z,8.95
2023-04-10T19:19:21.284Z,8.94
2023-04-10T19:21:49.216Z,8.83
2023-04-10T19:24:17.208Z,8.82
2023-04-10T19:26:45.586Z,8.79
2023-04-10T19:29:16.281Z,8.72
2023-04-10T19:31:44.404Z,8.65
2023-04-10T19:34:13.389Z,8.64
2023-04-10T19:36:41.883Z,8.56
2023-04-10T19:39:10.452Z,8.41
2023-04-10T19:41:44.100Z,8.31
2023-04-10T19:44:12.401Z,8.23
2023-04-10T19:46:40.739Z,8.19
2023-04-10T19:49:11.161Z,8.18
2023-04-10T19:51:39.551Z,8.12
2023-04-10T19:54:07.525Z,8.06
2023-04-10T19:56:37.893Z,7.98
2023-04-10T19:59:05.873Z,7.91
2023-04-10T20:01:34.585Z,7.89
2023-04-10T20:04:02.695Z,7.83
2023-04-10T20:06:32.023Z,7.80
2023-04-10T20:08:59.866Z,7.76
2023-04-10T20:11:30.765Z,7.65
2023-04-10T20:13:59.071Z,7.58
2023-04-10T20:16:27.214Z,7.53
2023-04-10T20:18:56.099Z,7.53
2023-04-10T20:21:24.252Z,7.51
2023-04-10T20:23:52.177Z,7.49
2023-04-10T20:26:20.097Z,7.46
2023-04-10T20:28:47.996Z,7.41
2023-04-10T20:31:16.047Z,7.37
2023-04-10T20:33:44.019Z,7.32
2023-04-10T20:36:13.073Z,7.30
2023-04-10T20:38:42.346Z,7.29
2023-04-10T20:41:10.287Z,7.27
2023-04-10T20:43:38.293Z,7.25
2023-04-10T20:46:08.189Z,7.22
2023-04-10T20:48:37.488Z,7.20
2023-04-10T20:51:05.773Z,7.19
2023-04-10T20:53:34.062Z,7.12
2023-04-10T20:56:03.560Z,7.08
2023-04-10T20:58:33.739Z,7.05
2023-04-10T21:01:01.936Z,6.99
2023-04-10T21:03:30.240Z,6.95
2023-04-10T21:05:58.290Z,6.88
2023-04-10T21:08:26.224Z,6.78
2023-04-10T21:10:54.209Z,6.73
2023-04-10T21:13:22.317Z,6.72
2023-04-10T21:15:50.423Z,6.70
2023-04-10T21:18:18.451Z,6.65
2023-04-10T21:20:46.444Z,6.59
2023-04-10T21:23:14.339Z,6.55
2023-04-10T21:25:50.674Z,6.51
2023-04-10T21:28:18.604Z,6.48
2023-04-10T21:30:46.811Z,6.44
2023-04-10T21:33:14.809Z,6.40
2023-04-10T21:35:44.248Z,6.42
2023-04-10T21:38:12.827Z,6.40
2023-04-10T21:40:40.839Z,6.34
2023-04-10T21:43:08.776Z,6.29
2023-04-10T21:45:37.644Z,6.23
2023-04-10T21:48:05.863Z,6.15
2023-04-10T21:50:33.841Z,6.10
2023-04-10T21:53:01.783Z,6.04
2023-04-10T21:55:29.842Z,5.96
2023-04-10T21:57:57.978Z,5.89
2023-04-10T22:00:26.354Z,5.83
2023-04-10T22:02:54.459Z,5.78
2023-04-10T22:05:24.509Z,5.79
2023-04-10T22:07:52.621Z,5.81
2023-04-10T22:10:20.662Z,5.80
2023-04-10T22:12:49.146Z,5.76
2023-04-10T22:15:17.623Z,5.71
2023-04-10T22:17:45.695Z,5.66
2023-04-10T22:20:13.731Z,5.59
2023-04-10T22:22:41.611Z,5.55
2023-04-10T22:25:09.768Z,5.52
2023-04-10T22:27:37.906Z,5.52
2023-04-10T22:30:07.007Z,5.58
2023-04-10T22:32:34.913Z,5.62
2023-04-10T22:35:02.845Z,5.63
2023-04-10T22:37:31.111Z,5.58
2023-04-10T22:40:00.637Z,5.49
2023-04-10T22:42:31.229Z,5.43
2023-04-10T22:44:59.948Z,5.39
2023-04-10T22:47:27.823Z,5.37
2023-04-10T22:49:55.823Z,5.36
2023-04-10T22:52:23.831Z,5.33
2023-04-10T22:54:51.705Z,5.32
2023-04-10T22:57:19.598Z,5.30
2023-04-10T22:59:47.592Z,5.26
2023-04-10T23:02:15.545Z,5.23
2023-04-10T23:04:43.624Z,5.20
2023-04-10T23:07:11.520Z,5.22
2023-04-10T23:09:39.460Z,5.19
2023-04-10T23:12:07.722Z,5.17
2023-04-10T23:14:36.089Z,5.16
2023-04-10T23:17:03.892Z,5.20
2023-04-10T23:19:31.729Z,5.22
2023-04-10T23:21:59.847Z,5.20
2023-04-10T23:24:27.680Z,5.17
2023-04-10T23:26:55.580Z,5.15
2023-04-10T23:29:23.412Z,5.16
2023-04-10T23:31:51.311Z,5.18
2023-04-10T23:34:20.945Z,5.14
2023-04-10T23:36:48.911Z,5.12
2023-04-10T23:39:16.897Z,5.08
2023-04-10T23:41:44.956Z,5.01
2023-04-10T23:44:12.789Z,4.99
2023-04-10T23:46:40.789Z,4.99
2023-04-10T23:49:08.786Z,4.99
2023-04-10T23:51:36.652Z,4.97
2023-04-10T23:54:05.728Z,4.94
2023-04-10T23:56:33.922Z,4.84
2023-04-10T23:59:01.777Z,4.73
